Terminal Aerodrome Forecast
Issued by NWS Pocatello, ID

Home | Current Version | Previous Version | Text Only | Print | Product List | Glossary On
Versions: 1 2 3 4 5 6 7 8 9 10 11 12 13 14 15 16 17 18 19 20 21
000
FTUS45 KPIH 241700
TAFIDA
TAF
KIDA 241720Z 2418/2518 21020G30KT P6SM VCSH SCT030 BKN060
      TEMPO 2418/2420 P6SM -RA BKN030
     FM250300 19010KT P6SM VCSH BKN050 OVC070
     FM251000 VRB05KT P6SM -SHRA SCT020 OVC035=

USA.gov is the U.S. government's official web portal to all federal, state and local government web resources and services.